Time;durP1;ratioP1;P1;durP2;ratioP2;P2;SDS_P1;SDS_P2;PMS_P1;PMS_P2;Temp;Humidity;BMP_temperature;BMP_pressure;BME280_temperature;BME280_humidity;BME280_pressure;Samples;Min_cycle;Max_cycle;Signal;HPM_P1;HPM_P2
2022/06/11 00:00:53;;;;;;;7.17;6.10;;;;;;;20.94;100.00;101054.75;2064665;28;20491;-66
2022/06/11 00:02:00;;;;;;;7.70;6.40;;;;;;;21.15;100.00;101090.13;2064554;28;20241;-66
2022/06/11 00:03:00;;;;;;;8.00;6.10;;;;;;;21.20;100.00;101088.63;2074135;28;20649;-66
2022/06/11 00:04:05;;;;;;;8.37;6.27;;;;;;;21.21;100.00;101082.50;2073916;28;20803;-66
2022/06/11 00:05:06;;;;;;;9.07;6.80;;;;;;;21.14;100.00;101068.06;2074417;28;20205;-66
2022/06/11 00:06:07;;;;;;;13.17;7.07;;;;;;;21.26;100.00;101086.66;2073254;28;21004;-66
2022/06/11 00:07:13;;;;;;;8.57;7.03;;;;;;;21.30;100.00;101090.03;2073913;28;21032;-66
2022/06/11 00:08:14;;;;;;;8.63;7.83;;;;;;;21.24;100.00;101081.50;2073694;28;20413;-66
2022/06/11 00:09:15;;;;;;;8.90;7.00;;;;;;;21.29;100.00;101091.31;2073932;28;20427;-66
2022/06/11 00:10:16;;;;;;;10.00;8.43;;;;;;;21.35;100.00;101081.63;2074269;28;20178;-66
2022/06/11 00:11:19;;;;;;;10.57;7.40;;;;;;;20.49;100.00;100956.06;2073462;28;20783;-66
2022/06/11 00:12:20;;;;;;;8.47;7.30;;;;;;;21.31;100.00;101078.28;2073783;28;20478;-66
2022/06/11 00:13:22;;;;;;;10.97;7.33;;;;;;;21.25;100.00;101073.84;2073450;28;20424;-67
2022/06/11 00:14:26;;;;;;;12.97;7.80;;;;;;;21.32;100.00;101087.50;2073795;28;20421;-66
2022/06/11 00:15:27;;;;;;;11.00;9.03;;;;;;;21.35;100.00;101107.00;2073797;28;20408;-66
2022/06/11 00:16:28;;;;;;;8.07;6.90;;;;;;;21.38;100.00;101080.66;2064748;28;20434;-66
2022/06/11 00:17:28;;;;;;;9.10;6.30;;;;;;;21.39;100.00;101078.63;2064955;28;21033;-67
2022/06/11 00:18:31;;;;;;;11.33;7.53;;;;;;;21.44;100.00;101072.25;2073452;28;20208;-66
2022/06/11 00:19:32;;;;;;;8.00;6.17;;;;;;;21.44;100.00;101075.09;2073796;28;20718;-66
2022/06/11 00:20:33;;;;;;;7.73;5.67;;;;;;;21.41;100.00;101085.31;2073372;28;20483;-66
2022/06/11 00:21:36;;;;;;;7.93;5.83;;;;;;;21.35;100.00;101073.16;2073433;28;20455;-67
2022/06/11 00:22:38;;;;;;;8.13;6.00;;;;;;;21.33;100.00;101069.31;2073652;28;20423;-66
2022/06/11 00:23:40;;;;;;;7.40;6.70;;;;;;;21.28;100.00;101070.78;2073363;28;20747;-66
2022/06/11 00:24:42;;;;;;;7.23;6.30;;;;;;;21.29;100.00;101068.75;2073626;28;20503;-66
2022/06/11 00:25:42;;;;;;;8.00;5.93;;;;;;;21.30;100.00;101059.81;2073680;28;20425;-66
2022/06/11 00:26:46;;;;;;;8.53;6.23;;;;;;;21.29;100.00;101077.97;2073631;28;20932;-66
2022/06/11 00:27:47;;;;;;;7.50;6.30;;;;;;;20.74;100.00;100986.34;2073212;28;20209;-66
2022/06/11 00:28:49;;;;;;;8.47;6.17;;;;;;;21.10;100.00;101053.41;2073555;28;20416;-66
2022/06/11 00:29:49;;;;;;;9.20;5.67;;;;;;;21.19;100.00;101053.28;2073547;28;20833;-67
2022/06/11 00:30:50;;;;;;;7.47;6.17;;;;;;;21.22;100.00;101061.50;2073315;28;20499;-66
2022/06/11 00:31:51;;;;;;;7.20;6.00;;;;;;;21.18;100.00;101063.00;2073559;28;20205;-66
2022/06/11 00:32:52;;;;;;;9.70;6.40;;;;;;;21.17;100.00;101061.44;2073411;28;20188;-66
2022/06/11 00:33:53;;;;;;;9.13;6.03;;;;;;;21.15;100.00;101059.13;2073667;28;20504;-66
2022/06/11 00:34:58;;;;;;;6.80;6.13;;;;;;;21.13;100.00;101047.56;2073511;28;20500;-66
2022/06/11 00:35:59;;;;;;;9.23;6.33;;;;;;;20.90;100.00;101028.84;2073788;28;20190;-66
2022/06/11 00:37:00;;;;;;;8.43;6.40;;;;;;;20.28;100.00;100929.19;2073636;28;20416;-66
2022/06/11 00:38:02;;;;;;;9.53;6.73;;;;;;;21.23;100.00;101057.41;2072794;28;20178;-66
2022/06/11 00:39:07;;;;;;;7.63;5.97;;;;;;;20.59;100.00;100938.56;2073653;28;20225;-66
2022/06/11 00:40:10;;;;;;;9.60;6.20;;;;;;;20.23;100.00;100890.50;2073525;28;20416;-66
2022/06/11 00:41:11;;;;;;;7.53;5.97;;;;;;;21.32;100.00;101059.28;2073067;28;20435;-66
2022/06/11 00:42:18;;;;;;;9.13;6.07;;;;;;;21.30;100.00;101057.00;2073583;28;21126;-66
2022/06/11 00:43:23;;;;;;;10.23;6.93;;;;;;;21.33;100.00;101053.16;2073258;28;20883;-66
2022/06/11 00:44:23;;;;;;;9.33;6.73;;;;;;;21.27;100.00;101052.34;2073537;28;20451;-66
2022/06/11 00:45:34;;;;;;;6.87;6.17;;;;;;;21.19;100.00;101047.63;2073363;28;20471;-66
2022/06/11 00:47:00;;;;;;;7.60;6.57;;;;;;;20.46;100.00;100955.03;2073378;28;20201;-66
2022/06/11 00:48:13;;;;;;;9.10;7.40;;;;;;;21.20;100.00;101049.97;2072706;28;20412;-66
2022/06/11 00:49:29;;;;;;;6.57;5.97;;;;;;;21.15;100.00;101049.88;2073654;28;20413;-67
2022/06/11 00:50:33;;;;;;;7.03;5.73;;;;;;;21.23;100.00;101054.59;2073389;28;20409;-66
2022/06/11 00:51:34;;;;;;;9.87;6.30;;;;;;;21.19;100.00;101050.44;2073067;28;20444;-66
2022/06/11 00:52:42;;;;;;;8.90;6.20;;;;;;;21.11;100.00;101047.28;2073446;28;20463;-66
2022/06/11 00:53:48;;;;;;;7.13;5.53;;;;;;;21.06;100.00;101048.00;2073048;28;20635;-66
2022/06/11 00:55:30;;;;;;;6.57;5.70;;;;;;;21.03;100.00;101046.16;2073579;28;20898;-66
2022/06/11 00:56:36;;;;;;;9.27;5.93;;;;;;;21.05;100.00;101049.28;2073212;28;20431;-66
2022/06/11 00:57:46;;;;;;;8.13;6.33;;;;;;;20.18;100.00;100916.50;2073287;28;20531;-67
2022/06/11 00:58:49;;;;;;;10.33;6.30;;;;;;;20.26;100.00;100909.97;2073192;28;20506;-67
2022/06/11 00:59:55;;;;;;;8.57;5.93;;;;;;;21.02;100.00;101030.53;2073283;28;20996;-67
2022/06/11 01:00:59;;;;;;;7.67;6.27;;;;;;;21.12;100.00;101045.22;2072869;28;20448;-67
2022/06/11 01:02:00;;;;;;;8.27;6.63;;;;;;;21.07;100.00;101051.56;2073228;28;20412;-67
2022/06/11 01:03:02;;;;;;;8.83;7.10;;;;;;;21.05;100.00;101052.09;2073016;28;20441;-66
2022/06/11 01:04:23;;;;;;;7.83;6.40;;;;;;;21.06;100.00;101055.66;2064680;28;20184;-66
2022/06/11 01:05:30;;;;;;;7.47;6.70;;;;;;;21.12;100.00;101060.09;2067516;28;20467;-67
2022/06/11 01:06:53;;;;;;;12.67;7.13;;;;;;;21.10;100.00;101059.03;2073400;28;20495;-66
2022/06/11 01:08:12;;;;;;;8.80;7.47;;;;;;;21.11;100.00;101058.56;2072687;28;20496;-66
2022/06/11 01:09:28;;;;;;;9.60;5.80;;;;;;;21.02;100.00;101072.78;2064640;28;20524;-67
2022/06/11 01:11:13;;;;;;;9.60;7.33;;;;;;;21.02;100.00;101055.88;2066701;28;20535;-66
2022/06/11 01:12:41;;;;;;;7.93;7.13;;;;;;;20.99;100.00;101058.91;2073306;28;20424;-66
2022/06/11 01:14:06;;;;;;;11.70;7.90;;;;;;;21.02;100.00;101060.72;2072959;28;20404;-66
2022/06/11 01:15:16;;;;;;;9.97;6.93;;;;;;;21.03;100.00;101062.31;2065246;28;20489;-66
2022/06/11 01:16:20;;;;;;;10.93;7.17;;;;;;;21.02;100.00;101064.34;2065215;28;20425;-67
2022/06/11 01:17:38;;;;;;;10.67;7.87;;;;;;;21.02;100.00;101069.97;2065196;28;20423;-66
2022/06/11 01:18:41;;;;;;;9.77;7.40;;;;;;;21.00;100.00;101066.88;2064781;28;20409;-67
2022/06/11 01:20:09;;;;;;;10.77;8.17;;;;;;;21.05;100.00;101069.00;2064995;28;20771;-67
2022/06/11 01:21:25;;;;;;;9.43;8.37;;;;;;;21.12;100.00;101067.78;2064907;28;20418;-67
2022/06/11 01:22:46;;;;;;;11.07;8.20;;;;;;;21.10;100.00;101071.09;2065269;28;20448;-66
2022/06/11 01:23:58;;;;;;;8.60;6.40;;;;;;;21.16;100.00;101077.56;2064774;28;20434;-67
2022/06/11 01:25:11;;;;;;;11.00;5.90;;;;;;;21.14;100.00;101074.47;2065084;28;20406;-66
2022/06/11 01:26:33;;;;;;;7.90;5.80;;;;;;;21.18;100.00;101071.47;2065132;28;20433;-66
2022/06/11 01:27:58;;;;;;;9.27;5.20;;;;;;;21.08;100.00;101070.81;2065023;28;20410;-66
2022/06/11 01:29:16;;;;;;;6.70;4.60;;;;;;;21.03;100.00;101063.06;2065072;28;20411;-67
2022/06/11 01:30:25;;;;;;;6.53;4.53;;;;;;;21.02;100.00;101075.59;2064801;28;20525;-66
2022/06/11 01:31:48;;;;;;;6.67;4.70;;;;;;;21.05;100.00;101079.47;2064808;28;20857;-67
2022/06/11 01:33:03;;;;;;;7.70;4.77;;;;;;;20.98;100.00;101077.84;2061311;28;20787;-66
2022/06/11 01:34:22;;;;;;;7.40;4.33;;;;;;;20.92;100.00;101074.19;2064680;28;20421;-66
2022/06/11 01:35:46;;;;;;;7.90;4.80;;;;;;;20.87;100.00;101082.56;2064996;28;20405;-66
2022/06/11 01:36:52;;;;;;;6.37;4.20;;;;;;;20.85;100.00;101088.69;2065089;28;20416;-67
2022/06/11 01:38:03;;;;;;;4.83;4.13;;;;;;;20.70;100.00;101071.06;2064313;28;20939;-67
2022/06/11 01:39:32;;;;;;;5.40;4.27;;;;;;;20.81;100.00;101085.28;2064977;28;20425;-67
2022/06/11 01:40:42;;;;;;;5.30;4.30;;;;;;;20.86;100.00;101086.63;2064654;28;20448;-66
2022/06/11 01:41:54;;;;;;;5.87;4.40;;;;;;;20.85;100.00;101088.69;2065083;28;20492;-67
2022/06/11 01:43:10;;;;;;;7.60;4.90;;;;;;;20.85;100.00;101083.03;2064739;28;20410;-67
2022/06/11 01:44:17;;;;;;;5.10;4.17;;;;;;;20.78;100.00;101083.44;2064788;28;20409;-66
2022/06/11 01:45:27;;;;;;;7.77;4.40;;;;;;;20.88;100.00;101090.50;2064879;28;20974;-66
2022/06/11 01:46:32;;;;;;;8.17;4.37;;;;;;;20.51;100.00;101023.91;2064946;28;20440;-66
2022/06/11 01:47:35;;;;;;;8.33;4.30;;;;;;;20.93;100.00;101089.06;2064889;28;20459;-67
2022/06/11 01:48:35;;;;;;;5.57;3.97;;;;;;;20.15;100.00;100960.47;2064359;28;20939;-67
2022/06/11 01:49:46;;;;;;;6.53;4.43;;;;;;;20.85;100.00;101071.00;2064720;28;20852;-67
2022/06/11 01:50:54;;;;;;;5.30;4.10;;;;;;;21.01;100.00;101096.59;2064410;28;20193;-66
2022/06/11 01:52:19;;;;;;;5.83;4.00;;;;;;;21.00;100.00;101086.59;2071626;28;20770;-67
2022/06/11 01:53:35;;;;;;;7.27;3.93;;;;;;;21.00;100.00;101088.63;2072661;28;20473;-67
2022/06/11 01:55:13;;;;;;;7.17;4.47;;;;;;;20.96;100.00;101090.88;2073148;28;20861;-67
2022/06/11 01:57:02;;;;;;;4.27;3.60;;;;;;;20.95;100.00;101089.34;2072933;28;20554;-66
2022/06/11 01:58:23;;;;;;;6.33;3.90;;;;;;;20.84;100.00;101089.94;2047204;29;20951;-66
2022/06/11 01:59:37;;;;;;;7.40;3.70;;;;;;;20.87;100.00;101080.50;2053538;28;20482;-66
2022/06/11 02:01:20;;;;;;;7.87;3.90;;;;;;;20.86;100.00;101078.16;2072569;28;20408;-67
2022/06/11 02:02:42;;;;;;;5.17;3.70;;;;;;;20.85;100.00;101082.25;2065063;28;20983;-67
2022/06/11 02:04:00;;;;;;;5.33;3.80;;;;;;;20.81;100.00;101079.66;2072669;28;20424;-66
2022/06/11 02:05:10;;;;;;;4.37;3.90;;;;;;;20.87;100.00;101082.56;2072892;28;20416;-67
2022/06/11 02:06:59;;;;;;;7.10;4.30;;;;;;;20.88;100.00;101079.22;2072819;28;20857;-67
2022/06/11 02:08:05;;;;;;;5.47;4.10;;;;;;;20.90;100.00;101082.38;2049129;28;20641;-66
2022/06/11 02:09:38;;;;;;;6.13;4.50;;;;;;;20.95;100.00;101080.88;2073043;28;20906;-66
2022/06/11 02:10:45;;;;;;;6.23;3.87;;;;;;;20.93;100.00;101081.38;2072439;28;20397;-67
2022/06/11 02:12:01;;;;;;;5.83;3.90;;;;;;;20.95;100.00;101081.66;2073024;28;20507;-66
2022/06/11 02:13:09;;;;;;;4.57;3.80;;;;;;;20.96;100.00;101077.59;2072726;28;20408;-66
2022/06/11 02:14:17;;;;;;;4.83;3.40;;;;;;;20.84;100.00;101073.03;2072959;28;20421;-67
2022/06/11 02:15:33;;;;;;;6.73;3.70;;;;;;;20.89;100.00;101080.00;2072954;28;20409;-66
2022/06/11 02:16:45;;;;;;;8.10;3.30;;;;;;;20.91;100.00;101077.50;2072983;28;20393;-67
2022/06/11 02:17:49;;;;;;;5.87;3.60;;;;;;;20.96;100.00;101071.94;2072418;28;20913;-67
2022/06/11 02:18:52;;;;;;;7.17;3.50;;;;;;;20.83;100.00;101063.03;2072254;28;20503;-67
2022/06/11 02:20:01;;;;;;;7.73;3.53;;;;;;;20.67;100.00;101029.78;2072536;28;20427;-66
2022/06/11 02:21:08;;;;;;;6.10;3.63;;;;;;;20.86;100.00;101069.72;2072356;28;20424;-66
2022/06/11 02:22:21;;;;;;;7.10;3.23;;;;;;;20.87;100.00;101060.78;2072997;28;20409;-66
2022/06/11 02:23:55;;;;;;;5.33;3.57;;;;;;;20.80;100.00;101066.84;2072396;28;20789;-66
2022/06/11 02:25:09;;;;;;;4.17;3.27;;;;;;;20.82;100.00;101063.53;2072835;28;20530;-66
2022/06/11 02:26:15;;;;;;;5.77;3.63;;;;;;;20.71;100.00;101069.00;2072787;28;20416;-66
2022/06/11 02:27:22;;;;;;;4.73;3.63;;;;;;;20.77;100.00;101069.88;2072885;28;20454;-66
2022/06/11 02:28:28;;;;;;;6.80;3.73;;;;;;;20.74;100.00;101071.63;2072415;28;20641;-67
2022/06/11 02:29:31;;;;;;;4.80;3.43;;;;;;;20.76;100.00;101079.56;2072955;28;20952;-66
2022/06/11 02:30:32;;;;;;;4.93;3.57;;;;;;;20.72;100.00;101079.03;2072596;28;20428;-66
2022/06/11 02:31:47;;;;;;;5.50;3.47;;;;;;;20.29;100.00;100996.25;2072595;28;20427;-66
2022/06/11 02:32:48;;;;;;;5.83;3.73;;;;;;;20.85;100.00;101096.34;2072833;28;20470;-66
2022/06/11 02:33:49;;;;;;;6.57;3.63;;;;;;;20.88;100.00;101084.09;2072784;28;20426;-66
2022/06/11 02:34:54;;;;;;;6.93;4.10;;;;;;;20.88;100.00;101081.28;2072894;28;20431;-66
2022/06/11 02:36:32;;;;;;;7.07;3.73;;;;;;;20.97;100.00;101084.75;2072898;28;20976;-67
2022/06/11 02:37:39;;;;;;;10.30;3.70;;;;;;;21.01;100.00;101090.19;2063269;28;20513;-66
2022/06/11 02:38:40;;;;;;;7.07;3.73;;;;;;;20.65;100.00;101040.78;2072149;28;20436;-67
2022/06/11 02:39:43;;;;;;;4.57;3.13;;;;;;;21.03;100.00;101079.22;2072857;28;20423;-67
2022/06/11 02:40:49;;;;;;;5.33;3.60;;;;;;;21.02;100.00;101083.28;2072249;28;20184;-66
2022/06/11 02:41:51;;;;;;;8.30;3.73;;;;;;;21.02;100.00;101075.59;2072820;28;20470;-66
2022/06/11 02:42:52;;;;;;;3.90;3.20;;;;;;;20.62;100.00;101026.91;2072399;28;20498;-66
2022/06/11 02:43:53;;;;;;;4.57;3.80;;;;;;;20.79;100.00;101056.84;2072586;28;20424;-67
2022/06/11 02:44:53;;;;;;;5.07;3.40;;;;;;;20.96;100.00;101080.41;2072574;28;20941;-66
2022/06/11 02:45:54;;;;;;;5.20;3.50;;;;;;;20.43;100.00;101014.34;2064011;28;20182;-66
2022/06/11 02:46:55;;;;;;;5.00;3.83;;;;;;;20.93;100.00;101084.19;2063860;28;20706;-66
2022/06/11 02:47:55;;;;;;;7.93;3.97;;;;;;;20.92;100.00;101085.47;2071902;28;20423;-66
2022/06/11 02:48:56;;;;;;;7.73;3.60;;;;;;;20.94;100.00;101096.25;2072911;28;20198;-67
2022/06/11 02:49:57;;;;;;;4.67;3.67;;;;;;;20.81;100.00;101087.31;2063686;28;20243;-66
2022/06/11 02:50:57;;;;;;;5.57;3.63;;;;;;;20.85;100.00;101097.13;2063553;28;20470;-66
2022/06/11 02:52:01;;;;;;;6.67;3.70;;;;;;;20.39;100.00;101020.19;2072701;28;20231;-66
2022/06/11 02:53:05;;;;;;;4.87;3.40;;;;;;;20.89;100.00;101100.56;2063607;28;20177;-66
2022/06/11 02:54:05;;;;;;;4.83;3.37;;;;;;;20.89;100.00;101096.91;2064482;28;20911;-66
2022/06/11 02:55:06;;;;;;;4.27;3.87;;;;;;;20.87;100.00;101102.28;2072641;28;20416;-66
2022/06/11 02:56:07;;;;;;;6.77;4.07;;;;;;;20.75;100.00;101076.00;2063899;28;20209;-66
2022/06/11 02:57:09;;;;;;;7.13;3.70;;;;;;;20.74;100.00;101074.44;2064170;28;20265;-67
2022/06/11 02:58:11;;;;;;;8.73;4.30;;;;;;;20.96;100.00;101108.56;2071953;28;20192;-66
2022/06/11 02:59:12;;;;;;;10.30;4.10;;;;;;;20.90;100.00;101093.66;2072604;28;21270;-67
2022/06/11 03:00:19;;;;;;;5.13;3.40;;;;;;;20.92;100.00;101093.13;2072504;28;20876;-67
2022/06/11 03:01:22;;;;;;;4.57;3.57;;;;;;;21.00;100.00;101108.34;2072492;28;20174;-66
2022/06/11 03:02:24;;;;;;;5.80;3.80;;;;;;;21.00;100.00;101108.34;2072627;28;20425;-67
2022/06/11 03:03:24;;;;;;;6.17;3.70;;;;;;;20.87;100.00;101088.94;2072239;28;20420;-66
2022/06/11 03:04:27;;;;;;;6.97;3.90;;;;;;;21.00;100.00;101114.00;2072772;28;20943;-66
2022/06/11 03:05:31;;;;;;;6.57;3.63;;;;;;;20.99;100.00;101121.66;2072635;28;20201;-67
2022/06/11 03:06:31;;;;;;;4.80;3.50;;;;;;;20.82;100.00;101086.84;2072469;28;20468;-67
2022/06/11 03:07:32;;;;;;;7.13;3.80;;;;;;;20.97;100.00;101110.13;2072396;28;20444;-66
2022/06/11 03:08:33;;;;;;;5.80;3.90;;;;;;;20.40;100.00;101020.94;2072180;28;20192;-66
2022/06/11 03:09:35;;;;;;;9.30;3.50;;;;;;;20.91;100.00;101095.19;2072608;28;20199;-66
2022/06/11 03:10:37;;;;;;;6.50;4.00;;;;;;;21.08;100.00;101129.22;2072358;28;20924;-66
2022/06/11 03:11:38;;;;;;;5.93;3.60;;;;;;;20.19;100.00;100975.13;2072581;28;20424;-66
2022/06/11 03:12:39;;;;;;;7.00;3.53;;;;;;;21.01;100.00;101095.81;2072624;28;20416;-67
2022/06/11 03:13:39;;;;;;;4.73;3.70;;;;;;;21.06;100.00;101114.84;2072411;28;20627;-67
2022/06/11 03:14:42;;;;;;;7.93;3.40;;;;;;;21.13;100.00;101108.78;2072556;28;20629;-66
2022/06/11 03:15:42;;;;;;;7.03;3.33;;;;;;;21.11;100.00;101100.03;2072602;28;20174;-67
2022/06/11 03:16:43;;;;;;;7.63;3.57;;;;;;;21.09;100.00;101102.59;2072605;28;20421;-67
2022/06/11 03:17:45;;;;;;;6.53;4.00;;;;;;;20.99;100.00;101101.19;2072186;28;20205;-67
2022/06/11 03:18:46;;;;;;;6.90;3.97;;;;;;;21.13;100.00;101101.09;2063936;28;21085;-66
2022/06/11 03:19:46;;;;;;;8.67;4.00;;;;;;;21.17;100.00;101103.69;2055659;28;20828;-67
2022/06/11 03:20:47;;;;;;;5.83;3.30;;;;;;;21.17;100.00;101104.50;2063334;28;20684;-67
2022/06/11 03:21:50;;;;;;;6.03;3.80;;;;;;;21.12;100.00;101096.75;2072648;28;20182;-66
2022/06/11 03:22:51;;;;;;;8.03;3.50;;;;;;;21.11;100.00;101100.84;2063357;28;20249;-66
2022/06/11 03:23:51;;;;;;;3.97;3.40;;;;;;;21.14;100.00;101102.66;2063824;28;20417;-66
2022/06/11 03:24:52;;;;;;;8.80;3.63;;;;;;;21.01;100.00;101090.19;2072626;28;20181;-66
2022/06/11 03:25:53;;;;;;;5.37;3.57;;;;;;;21.06;100.00;101098.72;2072560;28;20181;-66
2022/06/11 03:26:54;;;;;;;4.23;3.50;;;;;;;21.12;100.00;101098.78;2072651;28;20185;-66
2022/06/11 03:27:55;;;;;;;6.20;3.60;;;;;;;20.71;100.00;101044.44;2072108;28;20644;-66
2022/06/11 03:28:55;;;;;;;7.77;3.73;;;;;;;20.94;100.00;101074.47;2072579;28;20178;-66
2022/06/11 03:29:56;;;;;;;6.60;3.47;;;;;;;20.16;100.00;100955.63;2072819;28;20261;-66
2022/06/11 03:30:57;;;;;;;5.93;4.10;;;;;;;21.10;100.00;101099.28;2073487;28;20193;-66
2022/06/11 03:31:58;;;;;;;5.43;3.83;;;;;;;21.10;100.00;101096.47;2065276;28;20178;-66
2022/06/11 03:32:58;;;;;;;7.13;3.73;;;;;;;21.16;100.00;101094.50;2064986;28;20421;-66
2022/06/11 03:33:59;;;;;;;6.93;3.50;;;;;;;20.82;100.00;101046.63;2074074;28;20174;-67
2022/06/11 03:34:59;;;;;;;4.53;3.30;;;;;;;21.16;100.00;101100.13;2065346;28;20178;-67
2022/06/11 03:36:00;;;;;;;6.50;3.40;;;;;;;21.13;100.00;101092.66;2065316;28;20174;-66
2022/06/11 03:37:02;;;;;;;7.60;3.60;;;;;;;21.16;100.00;101093.69;2074073;28;20192;-66
2022/06/11 03:38:03;;;;;;;7.33;3.50;;;;;;;21.08;100.00;101096.16;2073273;28;20421;-66
2022/06/11 03:39:05;;;;;;;7.20;3.60;;;;;;;20.74;100.00;101046.28;2073988;28;20467;-66
2022/06/11 03:40:06;;;;;;;6.43;3.23;;;;;;;21.10;100.00;101093.66;2074011;28;20413;-66
2022/06/11 03:41:07;;;;;;;7.20;3.90;;;;;;;20.80;100.00;101043.53;2073530;28;20416;-67
2022/06/11 03:42:08;;;;;;;5.20;3.50;;;;;;;21.08;100.00;101084.13;2073976;28;20945;-67
2022/06/11 03:43:09;;;;;;;5.30;3.37;;;;;;;21.06;100.00;101081.03;2073953;28;20189;-66
2022/06/11 03:44:11;;;;;;;5.43;3.50;;;;;;;21.24;100.00;101097.66;2073966;28;20916;-66
2022/06/11 03:45:12;;;;;;;6.43;3.67;;;;;;;21.22;100.00;101097.38;2073974;28;20463;-66
2022/06/11 03:46:12;;;;;;;5.13;3.10;;;;;;;21.22;100.00;101092.50;2074078;28;20435;-67
2022/06/11 03:47:13;;;;;;;6.20;3.40;;;;;;;21.23;100.00;101098.94;2073964;28;20271;-66
2022/06/11 03:48:13;;;;;;;6.87;3.60;;;;;;;21.22;100.00;101094.53;2073420;28;20650;-66
2022/06/11 03:49:16;;;;;;;5.00;3.33;;;;;;;21.28;100.00;101098.97;2074054;28;20720;-66
2022/06/11 03:50:23;;;;;;;7.00;3.80;;;;;;;21.23;100.00;101085.59;2073436;28;20186;-66
2022/06/11 03:51:24;;;;;;;7.13;3.43;;;;;;;20.74;100.00;101014.50;2073722;28;20413;-66
2022/06/11 03:52:27;;;;;;;7.17;3.83;;;;;;;21.25;100.00;101096.38;2073938;28;20424;-67
2022/06/11 03:53:29;;;;;;;8.00;3.43;;;;;;;21.31;100.00;101100.03;2073571;28;20685;-66
2022/06/11 03:54:30;;;;;;;4.50;3.50;;;;;;;21.36;100.00;101093.69;2074011;28;20428;-66
2022/06/11 03:55:32;;;;;;;6.80;3.83;;;;;;;21.38;100.00;101100.38;2073989;28;20416;-66
2022/06/11 03:56:33;;;;;;;4.77;3.43;;;;;;;21.40;100.00;101108.34;2074013;28;20186;-67
2022/06/11 03:57:34;;;;;;;6.77;3.60;;;;;;;21.36;100.00;101094.47;2073761;28;20420;-66
2022/06/11 03:58:36;;;;;;;8.43;4.00;;;;;;;21.48;100.00;101107.41;2073355;28;20182;-67
2022/06/11 03:59:37;;;;;;;8.27;3.90;;;;;;;21.48;100.00;101103.81;2073963;28;20413;-66
2022/06/11 04:01:57;;;;;;;7.27;3.57;;;;;;;21.47;100.00;101100.25;2074161;28;20170;-66
2022/06/11 04:02:58;;;;;;;4.57;3.53;;;;;;;20.97;100.00;101022.00;2073554;28;20412;-66
2022/06/11 04:04:02;;;;;;;6.13;3.50;;;;;;;21.45;100.00;101096.38;2073917;28;20193;-66
2022/06/11 04:05:04;;;;;;;7.23;3.40;;;;;;;21.47;100.00;101124.81;2073739;28;20183;-67
2022/06/11 04:06:06;;;;;;;6.03;3.40;;;;;;;21.50;100.00;101099.22;2073686;28;20475;-67
2022/06/11 04:07:07;;;;;;;6.87;3.63;;;;;;;21.32;100.00;101070.56;2073779;28;20865;-66
2022/06/11 04:08:09;;;;;;;5.33;3.27;;;;;;;21.55;100.00;101106.22;2073140;28;20625;-66
2022/06/11 04:09:14;;;;;;;5.80;3.63;;;;;;;21.51;100.00;101117.72;2074029;28;20186;-66
2022/06/11 04:10:15;;;;;;;6.80;3.23;;;;;;;21.52;100.00;101107.97;2073676;28;20405;-67
2022/06/11 04:11:18;;;;;;;6.47;3.40;;;;;;;21.50;100.00;101112.56;2073548;28;20421;-66
2022/06/11 04:12:18;;;;;;;6.00;3.63;;;;;;;21.51;100.00;101116.94;2073898;28;20287;-66
2022/06/11 04:13:21;;;;;;;4.93;3.20;;;;;;;20.92;100.00;101031.94;2073379;28;20417;-66
2022/06/11 04:14:21;;;;;;;7.47;3.40;;;;;;;21.55;100.00;101121.06;2073802;28;20231;-67
2022/06/11 04:15:22;;;;;;;6.27;3.63;;;;;;;21.46;100.00;101107.16;2073909;28;20416;-67
2022/06/11 04:16:41;;;;;;;4.97;3.57;;;;;;;21.55;100.00;101132.34;2073806;28;20201;-66
2022/06/11 04:17:41;;;;;;;6.47;3.87;;;;;;;20.72;100.00;100986.09;2073761;28;20184;-66
2022/06/11 04:18:47;;;;;;;7.63;3.50;;;;;;;21.51;100.00;101114.13;2073457;28;20428;-66
2022/06/11 04:19:49;;;;;;;7.07;3.80;;;;;;;21.58;100.00;101116.50;2073736;28;20602;-66
2022/06/11 04:20:50;;;;;;;7.50;3.80;;;;;;;20.75;100.00;100982.25;2073095;28;20433;-66
2022/06/11 04:21:51;;;;;;;8.10;3.63;;;;;;;21.55;100.00;101109.78;2073705;28;20420;-67
2022/06/11 04:22:52;;;;;;;10.40;4.20;;;;;;;21.43;100.00;101101.72;2073411;28;20174;-67
2022/06/11 04:23:55;;;;;;;6.60;3.90;;;;;;;21.53;100.00;101123.63;2073851;28;20459;-66
2022/06/11 04:24:56;;;;;;;5.13;3.53;;;;;;;21.50;100.00;101118.22;2073745;28;20188;-66
2022/06/11 04:25:58;;;;;;;7.93;3.57;;;;;;;21.47;100.00;101119.97;2073667;28;20416;-66
2022/06/11 04:27:02;;;;;;;4.93;3.43;;;;;;;21.52;100.00;101126.94;2073671;28;20659;-66
2022/06/11 04:28:03;;;;;;;6.97;3.63;;;;;;;21.43;100.00;101115.81;2073267;28;20438;-66
2022/06/11 04:29:05;;;;;;;7.53;3.40;;;;;;;21.42;100.00;101117.88;2073690;28;20447;-66
2022/06/11 04:30:07;;;;;;;5.30;3.57;;;;;;;21.21;100.00;101073.25;2073442;28;20178;-66
2022/06/11 04:31:10;;;;;;;5.90;3.33;;;;;;;21.32;100.00;101110.81;2073505;28;20417;-66
2022/06/11 04:32:17;;;;;;;5.43;3.47;;;;;;;20.71;100.00;101012.66;2073610;28;20420;-66
2022/06/11 04:33:18;;;;;;;6.07;3.63;;;;;;;21.30;100.00;101110.56;2073440;28;20416;-67
2022/06/11 04:34:20;;;;;;;4.70;3.60;;;;;;;21.25;100.00;101099.19;2073700;28;20490;-66
2022/06/11 04:35:21;;;;;;;5.03;3.50;;;;;;;21.23;100.00;101093.28;2073577;28;20561;-66
2022/06/11 04:36:24;;;;;;;5.47;3.20;;;;;;;21.24;100.00;101100.47;2073623;28;20416;-66
2022/06/11 04:37:28;;;;;;;5.57;3.57;;;;;;;21.04;100.00;101069.47;2073572;28;20197;-66
2022/06/11 04:38:29;;;;;;;6.77;3.50;;;;;;;21.16;100.00;101097.31;2073135;28;20426;-66
2022/06/11 04:39:32;;;;;;;5.63;3.40;;;;;;;20.62;100.00;101016.41;2073659;28;20945;-66
2022/06/11 04:40:33;;;;;;;5.47;3.50;;;;;;;21.20;100.00;101103.50;2064619;28;20190;-66
2022/06/11 04:41:34;;;;;;;9.70;3.50;;;;;;;21.22;100.00;101103.00;2064381;28;20443;-66
2022/06/11 04:42:35;;;;;;;8.40;3.60;;;;;;;21.11;100.00;101100.84;2073405;28;20182;-66
2022/06/11 04:43:36;;;;;;;6.60;3.50;;;;;;;21.24;100.00;101118.16;2073331;28;20443;-66
2022/06/11 04:44:37;;;;;;;6.23;3.10;;;;;;;21.12;100.00;101079.81;2073667;28;20424;-66
2022/06/11 04:45:38;;;;;;;5.47;3.30;;;;;;;21.34;100.00;101104.69;2073624;28;20204;-67
2022/06/11 04:46:38;;;;;;;6.07;3.67;;;;;;;21.34;100.00;101102.63;2073507;28;21085;-66
2022/06/11 04:47:39;;;;;;;6.13;3.53;;;;;;;21.28;100.00;101098.97;2073290;28;20177;-66
2022/06/11 04:48:40;;;;;;;6.33;3.63;;;;;;;21.41;100.00;101113.50;2073266;28;20260;-66
2022/06/11 04:49:41;;;;;;;5.93;3.60;;;;;;;21.46;100.00;101106.38;2073589;28;20686;-66
2022/06/11 04:50:42;;;;;;;7.90;3.67;;;;;;;21.51;100.00;101111.28;2073147;28;20819;-67
2022/06/11 04:51:43;;;;;;;5.77;3.33;;;;;;;21.49;100.00;101111.78;2073788;28;20189;-66
2022/06/11 04:52:43;;;;;;;8.80;3.83;;;;;;;21.56;100.00;101110.59;2073486;28;20185;-66
2022/06/11 04:53:44;;;;;;;5.83;3.50;;;;;;;20.92;100.00;101011.44;2073435;28;20431;-66
2022/06/11 04:54:45;;;;;;;7.90;3.83;;;;;;;21.43;100.00;101081.97;2073578;28;20184;-67
2022/06/11 04:55:45;;;;;;;5.80;3.70;;;;;;;21.66;100.00;101106.34;2073491;28;20416;-66
2022/06/11 04:56:46;;;;;;;7.80;4.20;;;;;;;21.65;100.00;101104.78;2073469;28;20272;-66
2022/06/11 04:57:47;;;;;;;6.03;3.77;;;;;;;21.68;100.00;101096.13;2072981;28;20235;-66
2022/06/11 04:58:48;;;;;;;5.07;3.67;;;;;;;21.74;100.00;101105.41;2073589;28;20540;-67
2022/06/11 04:59:49;;;;;;;6.40;4.03;;;;;;;21.74;100.00;101099.03;2073770;28;20420;-66
2022/06/11 05:00:50;;;;;;;6.17;4.03;;;;;;;21.81;100.00;101101.38;2073117;28;20444;-66
2022/06/11 05:01:51;;;;;;;6.80;3.87;;;;;;;21.97;100.00;101114.88;2073448;28;20432;-66
2022/06/11 05:02:52;;;;;;;6.50;3.43;;;;;;;21.94;100.00;101113.03;2073329;28;20423;-66
2022/06/11 05:03:54;;;;;;;6.10;3.90;;;;;;;21.93;100.00;101105.84;2073448;28;20178;-67
2022/06/11 05:04:54;;;;;;;7.53;3.90;;;;;;;21.43;100.00;101017.13;2064588;28;20435;-66